sensor_id;sensor_type;location;lat;lon;timestamp;P1;durP1;ratioP1;P2;durP2;ratioP2
18376;SDS011;9315;52.624;13.544;2023-05-10T00:00:59;5.43;;;3.20;;
18376;SDS011;9315;52.624;13.544;2023-05-10T00:03:26;10.93;;;3.53;;
18376;SDS011;9315;52.624;13.544;2023-05-10T00:05:53;7.90;;;2.93;;
18376;SDS011;9315;52.624;13.544;2023-05-10T00:08:20;6.37;;;3.03;;
18376;SDS011;9315;52.624;13.544;2023-05-10T00:10:47;6.30;;;3.47;;
18376;SDS011;9315;52.624;13.544;2023-05-10T00:13:15;9.97;;;3.40;;
18376;SDS011;9315;52.624;13.544;2023-05-10T00:15:42;6.87;;;3.23;;
18376;SDS011;9315;52.624;13.544;2023-05-10T00:18:09;5.43;;;3.50;;
18376;SDS011;9315;52.624;13.544;2023-05-10T00:20:37;6.77;;;3.97;;
18376;SDS011;9315;52.624;13.544;2023-05-10T00:23:04;9.30;;;3.67;;
18376;SDS011;9315;52.624;13.544;2023-05-10T00:25:31;6.30;;;3.53;;
18376;SDS011;9315;52.624;13.544;2023-05-10T00:27:58;7.57;;;3.43;;
18376;SDS011;9315;52.624;13.544;2023-05-10T00:30:27;5.47;;;3.30;;
18376;SDS011;9315;52.624;13.544;2023-05-10T00:32:54;7.20;;;3.77;;
18376;SDS011;9315;52.624;13.544;2023-05-10T00:35:21;6.80;;;3.13;;
18376;SDS011;9315;52.624;13.544;2023-05-10T00:37:48;9.37;;;4.10;;
18376;SDS011;9315;52.624;13.544;2023-05-10T00:40:16;7.83;;;3.50;;
18376;SDS011;9315;52.624;13.544;2023-05-10T00:42:44;8.10;;;3.30;;
18376;SDS011;9315;52.624;13.544;2023-05-10T00:45:11;5.70;;;3.87;;
18376;SDS011;9315;52.624;13.544;2023-05-10T00:47:38;6.23;;;3.80;;
18376;SDS011;9315;52.624;13.544;2023-05-10T00:50:05;7.83;;;2.90;;
18376;SDS011;9315;52.624;13.544;2023-05-10T00:52:34;7.03;;;3.30;;
18376;SDS011;9315;52.624;13.544;2023-05-10T00:55:02;10.53;;;3.43;;
18376;SDS011;9315;52.624;13.544;2023-05-10T00:57:30;6.87;;;3.63;;
18376;SDS011;9315;52.624;13.544;2023-05-10T00:59:57;5.97;;;3.77;;
18376;SDS011;9315;52.624;13.544;2023-05-10T01:02:25;7.17;;;4.00;;
18376;SDS011;9315;52.624;13.544;2023-05-10T01:04:53;6.07;;;3.97;;
18376;SDS011;9315;52.624;13.544;2023-05-10T01:07:21;7.10;;;3.70;;
18376;SDS011;9315;52.624;13.544;2023-05-10T01:09:48;9.30;;;4.23;;
18376;SDS011;9315;52.624;13.544;2023-05-10T01:12:15;9.27;;;3.50;;
18376;SDS011;9315;52.624;13.544;2023-05-10T01:14:42;7.63;;;3.73;;
18376;SDS011;9315;52.624;13.544;2023-05-10T01:17:09;8.07;;;3.73;;
18376;SDS011;9315;52.624;13.544;2023-05-10T01:19:38;8.30;;;3.57;;
18376;SDS011;9315;52.624;13.544;2023-05-10T01:29:33;8.37;;;3.50;;
18376;SDS011;9315;52.624;13.544;2023-05-10T01:33:11;8.33;;;4.20;;
18376;SDS011;9315;52.624;13.544;2023-05-10T01:36:01;6.40;;;3.93;;
18376;SDS011;9315;52.624;13.544;2023-05-10T01:42:02;7.87;;;3.70;;
18376;SDS011;9315;52.624;13.544;2023-05-10T01:44:42;5.20;;;3.47;;
18376;SDS011;9315;52.624;13.544;2023-05-10T01:48:03;5.37;;;3.50;;
18376;SDS011;9315;52.624;13.544;2023-05-10T01:50:40;6.07;;;3.60;;
18376;SDS011;9315;52.624;13.544;2023-05-10T01:53:11;6.60;;;3.83;;
18376;SDS011;9315;52.624;13.544;2023-05-10T01:55:50;6.80;;;3.80;;
18376;SDS011;9315;52.624;13.544;2023-05-10T01:58:25;6.60;;;3.30;;
18376;SDS011;9315;52.624;13.544;2023-05-10T02:00:59;7.30;;;3.50;;
18376;SDS011;9315;52.624;13.544;2023-05-10T02:03:30;5.93;;;3.30;;
18376;SDS011;9315;52.624;13.544;2023-05-10T02:05:58;6.03;;;3.70;;
18376;SDS011;9315;52.624;13.544;2023-05-10T02:08:25;7.77;;;3.70;;
18376;SDS011;9315;52.624;13.544;2023-05-10T02:10:54;8.40;;;3.33;;
18376;SDS011;9315;52.624;13.544;2023-05-10T02:13:23;6.77;;;3.43;;
18376;SDS011;9315;52.624;13.544;2023-05-10T02:15:53;4.87;;;2.90;;
18376;SDS011;9315;52.624;13.544;2023-05-10T02:18:21;6.17;;;3.40;;
18376;SDS011;9315;52.624;13.544;2023-05-10T02:20:49;5.60;;;3.50;;
18376;SDS011;9315;52.624;13.544;2023-05-10T02:23:18;6.33;;;3.73;;
18376;SDS011;9315;52.624;13.544;2023-05-10T02:25:47;3.60;;;2.80;;
18376;SDS011;9315;52.624;13.544;2023-05-10T02:28:19;5.00;;;3.10;;
18376;SDS011;9315;52.624;13.544;2023-05-10T02:30:50;6.80;;;3.33;;
18376;SDS011;9315;52.624;13.544;2023-05-10T02:33:19;6.77;;;3.40;;
18376;SDS011;9315;52.624;13.544;2023-05-10T02:35:48;8.53;;;4.10;;
18376;SDS011;9315;52.624;13.544;2023-05-10T02:38:17;7.30;;;3.93;;
18376;SDS011;9315;52.624;13.544;2023-05-10T02:40:48;5.43;;;3.30;;
18376;SDS011;9315;52.624;13.544;2023-05-10T02:43:16;6.10;;;3.17;;
18376;SDS011;9315;52.624;13.544;2023-05-10T02:45:49;6.23;;;3.57;;
18376;SDS011;9315;52.624;13.544;2023-05-10T02:48:16;7.17;;;3.40;;
18376;SDS011;9315;52.624;13.544;2023-05-10T02:50:44;4.70;;;3.00;;
18376;SDS011;9315;52.624;13.544;2023-05-10T02:53:30;8.37;;;3.70;;
18376;SDS011;9315;52.624;13.544;2023-05-10T02:56:00;5.33;;;3.47;;
18376;SDS011;9315;52.624;13.544;2023-05-10T02:58:37;8.43;;;3.50;;
18376;SDS011;9315;52.624;13.544;2023-05-10T03:01:04;6.00;;;3.37;;
18376;SDS011;9315;52.624;13.544;2023-05-10T03:03:33;5.87;;;3.47;;
18376;SDS011;9315;52.624;13.544;2023-05-10T03:06:00;5.97;;;3.47;;
18376;SDS011;9315;52.624;13.544;2023-05-10T03:08:27;8.07;;;3.37;;
18376;SDS011;9315;52.624;13.544;2023-05-10T03:14:25;6.60;;;2.97;;
18376;SDS011;9315;52.624;13.544;2023-05-10T03:20:25;6.00;;;3.47;;
18376;SDS011;9315;52.624;13.544;2023-05-10T03:25:55;6.13;;;3.70;;
18376;SDS011;9315;52.624;13.544;2023-05-10T03:28:24;5.17;;;2.83;;
18376;SDS011;9315;52.624;13.544;2023-05-10T03:30:53;8.07;;;3.53;;
18376;SDS011;9315;52.624;13.544;2023-05-10T03:33:21;6.57;;;2.93;;
18376;SDS011;9315;52.624;13.544;2023-05-10T03:35:48;6.63;;;3.10;;
18376;SDS011;9315;52.624;13.544;2023-05-10T03:38:15;6.30;;;2.80;;
18376;SDS011;9315;52.624;13.544;2023-05-10T03:40:42;5.37;;;3.30;;
18376;SDS011;9315;52.624;13.544;2023-05-10T03:43:09;4.37;;;2.80;;
18376;SDS011;9315;52.624;13.544;2023-05-10T03:45:36;5.77;;;2.83;;
18376;SDS011;9315;52.624;13.544;2023-05-10T03:48:04;7.43;;;3.00;;
18376;SDS011;9315;52.624;13.544;2023-05-10T03:50:34;6.40;;;3.30;;
18376;SDS011;9315;52.624;13.544;2023-05-10T03:53:01;4.30;;;2.73;;
18376;SDS011;9315;52.624;13.544;2023-05-10T03:55:28;6.07;;;3.17;;
18376;SDS011;9315;52.624;13.544;2023-05-10T03:57:56;5.23;;;2.77;;
18376;SDS011;9315;52.624;13.544;2023-05-10T04:00:24;5.30;;;2.73;;
18376;SDS011;9315;52.624;13.544;2023-05-10T04:02:51;6.93;;;2.83;;
18376;SDS011;9315;52.624;13.544;2023-05-10T04:05:18;4.90;;;3.00;;
18376;SDS011;9315;52.624;13.544;2023-05-10T04:07:46;5.97;;;3.00;;
18376;SDS011;9315;52.624;13.544;2023-05-10T04:10:15;6.67;;;2.83;;
18376;SDS011;9315;52.624;13.544;2023-05-10T04:12:43;3.73;;;2.80;;
18376;SDS011;9315;52.624;13.544;2023-05-10T04:15:10;5.17;;;2.90;;
18376;SDS011;9315;52.624;13.544;2023-05-10T04:17:40;4.23;;;2.80;;
18376;SDS011;9315;52.624;13.544;2023-05-10T04:20:07;6.43;;;2.77;;
18376;SDS011;9315;52.624;13.544;2023-05-10T04:22:35;7.63;;;2.70;;
18376;SDS011;9315;52.624;13.544;2023-05-10T04:25:03;5.63;;;2.70;;
18376;SDS011;9315;52.624;13.544;2023-05-10T04:27:31;6.43;;;2.47;;
18376;SDS011;9315;52.624;13.544;2023-05-10T04:29:58;5.47;;;2.70;;
18376;SDS011;9315;52.624;13.544;2023-05-10T04:32:27;10.43;;;2.87;;
18376;SDS011;9315;52.624;13.544;2023-05-10T04:34:54;6.77;;;3.07;;
18376;SDS011;9315;52.624;13.544;2023-05-10T04:37:21;3.47;;;2.33;;
18376;SDS011;9315;52.624;13.544;2023-05-10T04:39:49;7.37;;;3.00;;
18376;SDS011;9315;52.624;13.544;2023-05-10T04:42:19;6.77;;;2.83;;
18376;SDS011;9315;52.624;13.544;2023-05-10T04:44:46;4.47;;;2.90;;
18376;SDS011;9315;52.624;13.544;2023-05-10T04:47:13;4.47;;;2.30;;
18376;SDS011;9315;52.624;13.544;2023-05-10T04:49:42;4.13;;;2.80;;
18376;SDS011;9315;52.624;13.544;2023-05-10T04:52:12;5.03;;;2.40;;
18376;SDS011;9315;52.624;13.544;2023-05-10T04:54:40;3.67;;;2.47;;
18376;SDS011;9315;52.624;13.544;2023-05-10T04:57:09;5.87;;;2.83;;
18376;SDS011;9315;52.624;13.544;2023-05-10T04:59:36;4.50;;;2.30;;
18376;SDS011;9315;52.624;13.544;2023-05-10T05:02:04;4.23;;;2.10;;
18376;SDS011;9315;52.624;13.544;2023-05-10T05:04:31;5.77;;;2.70;;
18376;SDS011;9315;52.624;13.544;2023-05-10T05:07:02;5.80;;;2.30;;
18376;SDS011;9315;52.624;13.544;2023-05-10T05:09:29;5.93;;;2.73;;
18376;SDS011;9315;52.624;13.544;2023-05-10T05:11:59;4.77;;;2.23;;
18376;SDS011;9315;52.624;13.544;2023-05-10T05:14:26;7.10;;;2.37;;
18376;SDS011;9315;52.624;13.544;2023-05-10T05:16:53;4.43;;;2.37;;
18376;SDS011;9315;52.624;13.544;2023-05-10T05:19:20;6.60;;;2.10;;
18376;SDS011;9315;52.624;13.544;2023-05-10T05:21:48;3.77;;;1.90;;
18376;SDS011;9315;52.624;13.544;2023-05-10T05:24:15;4.17;;;2.00;;
18376;SDS011;9315;52.624;13.544;2023-05-10T05:26:42;4.80;;;2.20;;
18376;SDS011;9315;52.624;13.544;2023-05-10T05:29:10;3.17;;;1.83;;
18376;SDS011;9315;52.624;13.544;2023-05-10T05:31:37;6.33;;;2.50;;
18376;SDS011;9315;52.624;13.544;2023-05-10T05:34:04;3.87;;;2.40;;
18376;SDS011;9315;52.624;13.544;2023-05-10T05:36:32;3.13;;;1.97;;
18376;SDS011;9315;52.624;13.544;2023-05-10T05:39:04;4.90;;;2.10;;
18376;SDS011;9315;52.624;13.544;2023-05-10T05:41:31;4.80;;;2.20;;
18376;SDS011;9315;52.624;13.544;2023-05-10T05:44:02;4.17;;;2.10;;
18376;SDS011;9315;52.624;13.544;2023-05-10T05:46:29;2.80;;;1.83;;
18376;SDS011;9315;52.624;13.544;2023-05-10T05:48:56;5.10;;;2.13;;
18376;SDS011;9315;52.624;13.544;2023-05-10T05:51:23;4.33;;;1.83;;
18376;SDS011;9315;52.624;13.544;2023-05-10T05:53:51;3.80;;;2.13;;
18376;SDS011;9315;52.624;13.544;2023-05-10T05:56:19;4.60;;;1.70;;
18376;SDS011;9315;52.624;13.544;2023-05-10T05:58:50;8.30;;;2.00;;
18376;SDS011;9315;52.624;13.544;2023-05-10T06:01:18;10.20;;;2.13;;
18376;SDS011;9315;52.624;13.544;2023-05-10T06:03:45;3.97;;;2.10;;
18376;SDS011;9315;52.624;13.544;2023-05-10T06:06:14;2.93;;;1.80;;
18376;SDS011;9315;52.624;13.544;2023-05-10T06:08:41;2.73;;;1.77;;
18376;SDS011;9315;52.624;13.544;2023-05-10T06:11:08;2.90;;;1.67;;
18376;SDS011;9315;52.624;13.544;2023-05-10T06:13:35;2.17;;;1.77;;
18376;SDS011;9315;52.624;13.544;2023-05-10T06:16:03;5.60;;;1.77;;
18376;SDS011;9315;52.624;13.544;2023-05-10T06:18:30;5.30;;;2.20;;
18376;SDS011;9315;52.624;13.544;2023-05-10T06:20:57;5.20;;;1.97;;
18376;SDS011;9315;52.624;13.544;2023-05-10T06:23:31;3.50;;;1.70;;
18376;SDS011;9315;52.624;13.544;2023-05-10T06:25:58;5.53;;;1.53;;
18376;SDS011;9315;52.624;13.544;2023-05-10T06:28:25;4.13;;;1.57;;
18376;SDS011;9315;52.624;13.544;2023-05-10T06:30:52;4.73;;;1.37;;
18376;SDS011;9315;52.624;13.544;2023-05-10T06:33:19;2.73;;;1.70;;
18376;SDS011;9315;52.624;13.544;2023-05-10T06:35:46;4.27;;;1.80;;
18376;SDS011;9315;52.624;13.544;2023-05-10T06:38:14;3.43;;;1.43;;
18376;SDS011;9315;52.624;13.544;2023-05-10T06:40:41;12.43;;;2.17;;
18376;SDS011;9315;52.624;13.544;2023-05-10T06:43:11;6.17;;;1.80;;
18376;SDS011;9315;52.624;13.544;2023-05-10T06:45:39;6.90;;;1.57;;
18376;SDS011;9315;52.624;13.544;2023-05-10T06:48:07;2.70;;;1.57;;
18376;SDS011;9315;52.624;13.544;2023-05-10T06:50:34;1.87;;;1.40;;
18376;SDS011;9315;52.624;13.544;2023-05-10T06:53:01;2.17;;;1.47;;
18376;SDS011;9315;52.624;13.544;2023-05-10T06:55:28;9.13;;;1.73;;
18376;SDS011;9315;52.624;13.544;2023-05-10T06:57:57;2.63;;;1.60;;
18376;SDS011;9315;52.624;13.544;2023-05-10T07:00:24;3.93;;;1.20;;
18376;SDS011;9315;52.624;13.544;2023-05-10T07:02:51;3.13;;;1.30;;
18376;SDS011;9315;52.624;13.544;2023-05-10T07:05:18;3.73;;;1.70;;
18376;SDS011;9315;52.624;13.544;2023-05-10T07:07:46;3.10;;;1.57;;
18376;SDS011;9315;52.624;13.544;2023-05-10T07:10:13;2.67;;;1.23;;
18376;SDS011;9315;52.624;13.544;2023-05-10T07:12:41;9.13;;;2.07;;
18376;SDS011;9315;52.624;13.544;2023-05-10T07:15:08;3.60;;;1.60;;
18376;SDS011;9315;52.624;13.544;2023-05-10T07:17:36;5.17;;;1.93;;
18376;SDS011;9315;52.624;13.544;2023-05-10T07:20:04;5.20;;;1.40;;
18376;SDS011;9315;52.624;13.544;2023-05-10T07:22:34;1.80;;;1.20;;
18376;SDS011;9315;52.624;13.544;2023-05-10T07:25:04;8.60;;;1.30;;
18376;SDS011;9315;52.624;13.544;2023-05-10T07:27:35;5.07;;;1.60;;
18376;SDS011;9315;52.624;13.544;2023-05-10T07:30:03;5.17;;;1.37;;
18376;SDS011;9315;52.624;13.544;2023-05-10T07:32:30;5.40;;;1.40;;
18376;SDS011;9315;52.624;13.544;2023-05-10T07:34:58;2.97;;;1.47;;
18376;SDS011;9315;52.624;13.544;2023-05-10T07:37:25;5.33;;;1.60;;
18376;SDS011;9315;52.624;13.544;2023-05-10T07:39:53;10.07;;;1.60;;
18376;SDS011;9315;52.624;13.544;2023-05-10T07:42:20;2.90;;;1.47;;
18376;SDS011;9315;52.624;13.544;2023-05-10T07:44:49;5.67;;;1.57;;
18376;SDS011;9315;52.624;13.544;2023-05-10T07:47:17;6.30;;;1.43;;
18376;SDS011;9315;52.624;13.544;2023-05-10T07:49:45;9.03;;;1.43;;
18376;SDS011;9315;52.624;13.544;2023-05-10T07:52:12;4.23;;;1.20;;
18376;SDS011;9315;52.624;13.544;2023-05-10T07:54:40;7.13;;;1.50;;
18376;SDS011;9315;52.624;13.544;2023-05-10T07:57:07;4.47;;;1.60;;
18376;SDS011;9315;52.624;13.544;2023-05-10T07:59:34;3.80;;;1.67;;
18376;SDS011;9315;52.624;13.544;2023-05-10T08:02:02;2.00;;;1.38;;
18376;SDS011;9315;52.624;13.544;2023-05-10T08:04:30;6.20;;;1.57;;
18376;SDS011;9315;52.624;13.544;2023-05-10T08:06:58;3.90;;;1.50;;
18376;SDS011;9315;52.624;13.544;2023-05-10T08:09:25;4.03;;;1.60;;
18376;SDS011;9315;52.624;13.544;2023-05-10T08:12:04;1.95;;;1.40;;
18376;SDS011;9315;52.624;13.544;2023-05-10T08:14:32;2.33;;;1.50;;
18376;SDS011;9315;52.624;13.544;2023-05-10T08:16:59;4.00;;;1.60;;
18376;SDS011;9315;52.624;13.544;2023-05-10T08:19:29;2.80;;;1.37;;
18376;SDS011;9315;52.624;13.544;2023-05-10T08:21:57;5.13;;;1.60;;
18376;SDS011;9315;52.624;13.544;2023-05-10T08:24:24;6.50;;;1.77;;
18376;SDS011;9315;52.624;13.544;2023-05-10T08:26:51;1.77;;;1.30;;
18376;SDS011;9315;52.624;13.544;2023-05-10T08:29:19;14.73;;;1.90;;
18376;SDS011;9315;52.624;13.544;2023-05-10T08:31:46;2.55;;;1.38;;
18376;SDS011;9315;52.624;13.544;2023-05-10T08:34:13;5.25;;;1.80;;
18376;SDS011;9315;52.624;13.544;2023-05-10T08:36:41;3.47;;;1.30;;
18376;SDS011;9315;52.624;13.544;2023-05-10T08:39:08;2.70;;;1.65;;
18376;SDS011;9315;52.624;13.544;2023-05-10T08:41:54;1.73;;;1.42;;
18376;SDS011;9315;52.624;13.544;2023-05-10T08:44:28;7.15;;;1.60;;
18376;SDS011;9315;52.624;13.544;2023-05-10T08:47:04;3.72;;;1.17;;
18376;SDS011;9315;52.624;13.544;2023-05-10T08:49:34;4.40;;;1.42;;
18376;SDS011;9315;52.624;13.544;2023-05-10T08:52:03;6.80;;;1.20;;
18376;SDS011;9315;52.624;13.544;2023-05-10T08:54:32;14.68;;;2.13;;
18376;SDS011;9315;52.624;13.544;2023-05-10T08:57:00;8.55;;;1.58;;
18376;SDS011;9315;52.624;13.544;2023-05-10T08:59:30;77.72;;;5.05;;
18376;SDS011;9315;52.624;13.544;2023-05-10T09:02:05;5.30;;;1.60;;
18376;SDS011;9315;52.624;13.544;2023-05-10T09:04:34;2.58;;;1.35;;
18376;SDS011;9315;52.624;13.544;2023-05-10T09:07:04;5.82;;;1.63;;
18376;SDS011;9315;52.624;13.544;2023-05-10T09:09:33;7.68;;;1.60;;
18376;SDS011;9315;52.624;13.544;2023-05-10T09:12:01;3.58;;;1.30;;
18376;SDS011;9315;52.624;13.544;2023-05-10T09:14:28;3.58;;;1.30;;
18376;SDS011;9315;52.624;13.544;2023-05-10T09:17:01;6.05;;;1.38;;
18376;SDS011;9315;52.624;13.544;2023-05-10T09:19:28;2.83;;;1.50;;
18376;SDS011;9315;52.624;13.544;2023-05-10T09:21:55;17.50;;;1.92;;
18376;SDS011;9315;52.624;13.544;2023-05-10T09:24:26;5.47;;;1.70;;
18376;SDS011;9315;52.624;13.544;2023-05-10T09:26:53;8.30;;;1.70;;
18376;SDS011;9315;52.624;13.544;2023-05-10T09:29:22;9.27;;;1.75;;
18376;SDS011;9315;52.624;13.544;2023-05-10T09:31:50;4.40;;;1.50;;
18376;SDS011;9315;52.624;13.544;2023-05-10T09:34:22;6.90;;;1.55;;
18376;SDS011;9315;52.624;13.544;2023-05-10T09:36:59;3.88;;;1.30;;
18376;SDS011;9315;52.624;13.544;2023-05-10T09:39:33;2.85;;;1.20;;
18376;SDS011;9315;52.624;13.544;2023-05-10T09:42:04;3.28;;;1.23;;
18376;SDS011;9315;52.624;13.544;2023-05-10T09:44:36;7.68;;;1.45;;
18376;SDS011;9315;52.624;13.544;2023-05-10T09:47:07;2.13;;;1.52;;
18376;SDS011;9315;52.624;13.544;2023-05-10T09:49:34;2.60;;;1.63;;
18376;SDS011;9315;52.624;13.544;2023-05-10T09:54:31;2.20;;;1.30;;
18376;SDS011;9315;52.624;13.544;2023-05-10T09:57:00;5.43;;;1.90;;
18376;SDS011;9315;52.624;13.544;2023-05-10T09:59:29;3.00;;;1.48;;
18376;SDS011;9315;52.624;13.544;2023-05-10T10:02:00;5.20;;;1.55;;
18376;SDS011;9315;52.624;13.544;2023-05-10T10:04:28;9.75;;;1.83;;
18376;SDS011;9315;52.624;13.544;2023-05-10T10:06:59;9.50;;;1.92;;
18376;SDS011;9315;52.624;13.544;2023-05-10T10:09:30;3.35;;;1.60;;
18376;SDS011;9315;52.624;13.544;2023-05-10T10:11:59;3.05;;;1.70;;
18376;SDS011;9315;52.624;13.544;2023-05-10T10:14:28;2.55;;;1.52;;
18376;SDS011;9315;52.624;13.544;2023-05-10T10:16:56;2.15;;;1.40;;
18376;SDS011;9315;52.624;13.544;2023-05-10T10:19:34;4.18;;;2.05;;
18376;SDS011;9315;52.624;13.544;2023-05-10T10:22:03;3.67;;;1.70;;
18376;SDS011;9315;52.624;13.544;2023-05-10T10:24:32;6.35;;;1.60;;
18376;SDS011;9315;52.624;13.544;2023-05-10T10:27:06;3.38;;;1.38;;
18376;SDS011;9315;52.624;13.544;2023-05-10T10:33:24;16.08;;;2.25;;
18376;SDS011;9315;52.624;13.544;2023-05-10T10:36:42;9.38;;;1.75;;
18376;SDS011;9315;52.624;13.544;2023-05-10T10:39:13;9.40;;;1.60;;
18376;SDS011;9315;52.624;13.544;2023-05-10T10:52:27;16.52;;;1.85;;
18376;SDS011;9315;52.624;13.544;2023-05-10T10:55:06;6.00;;;1.50;;
18376;SDS011;9315;52.624;13.544;2023-05-10T11:00:37;4.13;;;1.50;;
18376;SDS011;9315;52.624;13.544;2023-05-10T11:03:10;8.15;;;1.83;;
18376;SDS011;9315;52.624;13.544;2023-05-10T11:05:47;2.00;;;1.30;;
18376;SDS011;9315;52.624;13.544;2023-05-10T11:13:34;16.35;;;2.20;;
18376;SDS011;9315;52.624;13.544;2023-05-10T11:16:20;5.13;;;1.50;;
18376;SDS011;9315;52.624;13.544;2023-05-10T11:19:07;6.07;;;1.70;;
18376;SDS011;9315;52.624;13.544;2023-05-10T11:21:48;2.72;;;1.65;;
18376;SDS011;9315;52.624;13.544;2023-05-10T11:24:42;7.93;;;1.40;;
18376;SDS011;9315;52.624;13.544;2023-05-10T11:27:24;2.55;;;1.40;;
18376;SDS011;9315;52.624;13.544;2023-05-10T11:29:52;13.00;;;1.75;;
18376;SDS011;9315;52.624;13.544;2023-05-10T11:32:19;5.47;;;1.50;;
18376;SDS011;9315;52.624;13.544;2023-05-10T11:34:47;5.03;;;1.70;;
18376;SDS011;9315;52.624;13.544;2023-05-10T11:37:14;1.85;;;1.20;;
18376;SDS011;9315;52.624;13.544;2023-05-10T11:39:46;7.90;;;1.50;;
18376;SDS011;9315;52.624;13.544;2023-05-10T11:42:13;5.35;;;1.60;;
18376;SDS011;9315;52.624;13.544;2023-05-10T11:44:41;6.82;;;1.58;;
18376;SDS011;9315;52.624;13.544;2023-05-10T11:47:10;7.40;;;1.73;;
18376;SDS011;9315;52.624;13.544;2023-05-10T11:49:38;8.68;;;2.15;;
18376;SDS011;9315;52.624;13.544;2023-05-10T11:52:09;2.85;;;1.80;;
18376;SDS011;9315;52.624;13.544;2023-05-10T11:54:37;10.50;;;1.45;;
18376;SDS011;9315;52.624;13.544;2023-05-10T11:57:14;6.72;;;1.58;;
18376;SDS011;9315;52.624;13.544;2023-05-10T11:59:41;5.07;;;1.73;;
18376;SDS011;9315;52.624;13.544;2023-05-10T12:02:08;7.60;;;1.40;;
18376;SDS011;9315;52.624;13.544;2023-05-10T12:04:36;3.92;;;1.50;;
18376;SDS011;9315;52.624;13.544;2023-05-10T12:07:04;6.22;;;1.77;;
18376;SDS011;9315;52.624;13.544;2023-05-10T12:09:31;6.82;;;1.33;;
18376;SDS011;9315;52.624;13.544;2023-05-10T12:12:09;12.30;;;1.60;;
18376;SDS011;9315;52.624;13.544;2023-05-10T12:14:42;6.50;;;1.52;;
18376;SDS011;9315;52.624;13.544;2023-05-10T12:17:12;21.88;;;2.40;;
18376;SDS011;9315;52.624;13.544;2023-05-10T12:19:41;15.10;;;2.70;;
18376;SDS011;9315;52.624;13.544;2023-05-10T12:22:09;2.85;;;1.40;;
18376;SDS011;9315;52.624;13.544;2023-05-10T12:24:36;10.60;;;1.30;;
18376;SDS011;9315;52.624;13.544;2023-05-10T12:27:05;7.00;;;1.98;;
18376;SDS011;9315;52.624;13.544;2023-05-10T12:29:34;6.35;;;1.70;;
18376;SDS011;9315;52.624;13.544;2023-05-10T12:32:02;5.63;;;1.50;;
18376;SDS011;9315;52.624;13.544;2023-05-10T12:34:33;10.30;;;1.58;;
18376;SDS011;9315;52.624;13.544;2023-05-10T12:37:05;11.55;;;1.80;;
18376;SDS011;9315;52.624;13.544;2023-05-10T12:39:42;12.02;;;2.05;;
18376;SDS011;9315;52.624;13.544;2023-05-10T12:42:12;5.60;;;1.70;;
18376;SDS011;9315;52.624;13.544;2023-05-10T12:44:39;6.18;;;1.63;;
18376;SDS011;9315;52.624;13.544;2023-05-10T12:47:07;8.13;;;1.48;;
18376;SDS011;9315;52.624;13.544;2023-05-10T12:49:34;1.88;;;1.10;;
18376;SDS011;9315;52.624;13.544;2023-05-10T12:52:02;6.00;;;1.33;;
18376;SDS011;9315;52.624;13.544;2023-05-10T12:54:29;6.65;;;1.70;;
18376;SDS011;9315;52.624;13.544;2023-05-10T12:56:56;7.28;;;1.50;;
18376;SDS011;9315;52.624;13.544;2023-05-10T12:59:24;3.17;;;1.20;;
18376;SDS011;9315;52.624;13.544;2023-05-10T13:01:51;3.35;;;1.38;;
18376;SDS011;9315;52.624;13.544;2023-05-10T13:04:18;7.03;;;2.08;;
18376;SDS011;9315;52.624;13.544;2023-05-10T13:06:45;17.48;;;1.70;;
18376;SDS011;9315;52.624;13.544;2023-05-10T13:09:13;1.80;;;1.25;;
18376;SDS011;9315;52.624;13.544;2023-05-10T13:11:41;2.17;;;1.20;;
18376;SDS011;9315;52.624;13.544;2023-05-10T13:14:08;5.32;;;1.23;;
18376;SDS011;9315;52.624;13.544;2023-05-10T13:16:35;13.80;;;1.58;;
18376;SDS011;9315;52.624;13.544;2023-05-10T13:19:02;14.73;;;1.52;;
18376;SDS011;9315;52.624;13.544;2023-05-10T13:21:30;7.65;;;1.08;;
18376;SDS011;9315;52.624;13.544;2023-05-10T13:24:00;6.97;;;1.25;;
18376;SDS011;9315;52.624;13.544;2023-05-10T13:26:30;4.63;;;1.40;;
18376;SDS011;9315;52.624;13.544;2023-05-10T13:28:57;3.80;;;1.23;;
18376;SDS011;9315;52.624;13.544;2023-05-10T13:31:24;6.53;;;1.65;;
18376;SDS011;9315;52.624;13.544;2023-05-10T13:33:51;7.00;;;1.38;;
18376;SDS011;9315;52.624;13.544;2023-05-10T13:36:19;7.55;;;1.58;;
18376;SDS011;9315;52.624;13.544;2023-05-10T13:38:46;7.97;;;1.50;;
18376;SDS011;9315;52.624;13.544;2023-05-10T13:41:13;2.85;;;1.20;;
18376;SDS011;9315;52.624;13.544;2023-05-10T13:43:40;6.00;;;1.38;;
18376;SDS011;9315;52.624;13.544;2023-05-10T13:46:07;8.60;;;1.20;;
18376;SDS011;9315;52.624;13.544;2023-05-10T13:48:35;5.03;;;1.20;;
18376;SDS011;9315;52.624;13.544;2023-05-10T13:51:05;3.50;;;1.30;;
18376;SDS011;9315;52.624;13.544;2023-05-10T13:53:32;2.13;;;1.52;;
18376;SDS011;9315;52.624;13.544;2023-05-10T13:56:00;4.82;;;1.00;;
18376;SDS011;9315;52.624;13.544;2023-05-10T13:58:28;2.08;;;1.17;;
18376;SDS011;9315;52.624;13.544;2023-05-10T14:00:58;4.22;;;1.30;;
18376;SDS011;9315;52.624;13.544;2023-05-10T14:03:25;4.95;;;1.20;;
18376;SDS011;9315;52.624;13.544;2023-05-10T14:05:53;8.40;;;1.45;;
18376;SDS011;9315;52.624;13.544;2023-05-10T14:08:22;4.00;;;1.08;;
18376;SDS011;9315;52.624;13.544;2023-05-10T14:10:50;3.72;;;1.48;;
18376;SDS011;9315;52.624;13.544;2023-05-10T14:13:18;2.85;;;1.60;;
18376;SDS011;9315;52.624;13.544;2023-05-10T14:15:45;1.88;;;1.25;;
18376;SDS011;9315;52.624;13.544;2023-05-10T14:18:12;14.10;;;1.63;;
18376;SDS011;9315;52.624;13.544;2023-05-10T14:20:40;4.70;;;1.30;;
18376;SDS011;9315;52.624;13.544;2023-05-10T14:23:10;1.30;;;1.13;;
18376;SDS011;9315;52.624;13.544;2023-05-10T14:25:41;8.52;;;1.42;;
18376;SDS011;9315;52.624;13.544;2023-05-10T14:28:09;17.40;;;2.20;;
18376;SDS011;9315;52.624;13.544;2023-05-10T14:30:36;5.45;;;1.30;;
18376;SDS011;9315;52.624;13.544;2023-05-10T14:33:05;12.65;;;1.80;;
18376;SDS011;9315;52.624;13.544;2023-05-10T14:35:37;3.50;;;1.45;;
18376;SDS011;9315;52.624;13.544;2023-05-10T14:38:04;9.45;;;1.60;;
18376;SDS011;9315;52.624;13.544;2023-05-10T14:40:31;4.10;;;1.27;;
18376;SDS011;9315;52.624;13.544;2023-05-10T14:42:59;1.88;;;1.40;;
18376;SDS011;9315;52.624;13.544;2023-05-10T14:45:26;5.00;;;1.65;;
18376;SDS011;9315;52.624;13.544;2023-05-10T14:47:56;24.10;;;2.33;;
18376;SDS011;9315;52.624;13.544;2023-05-10T14:50:24;8.25;;;1.52;;
18376;SDS011;9315;52.624;13.544;2023-05-10T14:53:01;3.80;;;1.80;;
18376;SDS011;9315;52.624;13.544;2023-05-10T14:55:31;7.47;;;1.50;;
18376;SDS011;9315;52.624;13.544;2023-05-10T14:57:59;5.32;;;1.48;;
18376;SDS011;9315;52.624;13.544;2023-05-10T15:00:26;2.75;;;1.50;;
18376;SDS011;9315;52.624;13.544;2023-05-10T15:02:56;10.27;;;4.95;;
18376;SDS011;9315;52.624;13.544;2023-05-10T15:05:24;6.22;;;1.52;;
18376;SDS011;9315;52.624;13.544;2023-05-10T15:07:52;3.58;;;2.60;;
18376;SDS011;9315;52.624;13.544;2023-05-10T15:10:19;9.10;;;1.75;;
18376;SDS011;9315;52.624;13.544;2023-05-10T15:12:46;9.30;;;1.67;;
18376;SDS011;9315;52.624;13.544;2023-05-10T15:15:13;10.30;;;1.38;;
18376;SDS011;9315;52.624;13.544;2023-05-10T15:17:41;4.18;;;1.60;;
18376;SDS011;9315;52.624;13.544;2023-05-10T15:20:08;1.83;;;1.05;;
18376;SDS011;9315;52.624;13.544;2023-05-10T15:22:36;39.15;;;2.65;;
18376;SDS011;9315;52.624;13.544;2023-05-10T15:25:04;25.05;;;1.70;;
18376;SDS011;9315;52.624;13.544;2023-05-10T15:27:33;5.93;;;2.10;;
18376;SDS011;9315;52.624;13.544;2023-05-10T15:30:01;14.02;;;1.90;;
18376;SDS011;9315;52.624;13.544;2023-05-10T15:32:28;4.65;;;2.00;;
18376;SDS011;9315;52.624;13.544;2023-05-10T15:34:55;6.68;;;2.50;;
18376;SDS011;9315;52.624;13.544;2023-05-10T15:37:23;8.07;;;7.32;;
18376;SDS011;9315;52.624;13.544;2023-05-10T15:39:50;3.05;;;2.35;;
18376;SDS011;9315;52.624;13.544;2023-05-10T15:42:17;4.22;;;1.10;;
18376;SDS011;9315;52.624;13.544;2023-05-10T15:44:47;4.90;;;4.10;;